Time;durP1;ratioP1;P1;durP2;ratioP2;P2;SDS_P1;SDS_P2;PMS_P1;PMS_P2;Temp;Humidity;BMP_temperature;BMP_pressure;BME280_temperature;BME280_humidity;BME280_pressure;Samples;Min_cycle;Max_cycle;Signal;HPM_P1;HPM_P2
2024/02/28 00:00:12;;;;;;;72.10;44.30;;;;;;;9.96;89.50;100106.46;130521;1263;108661;-80
2024/02/28 00:03:38;;;;;;;62.60;39.30;;;;;;;9.93;89.28;100102.29;130590;1259;109929;-81
2024/02/28 00:06:44;;;;;;;60.80;40.40;;;;;;;9.98;89.12;100096.28;130522;1265;108664;-81
2024/02/28 00:09:49;;;;;;;59.40;39.80;;;;;;;10.08;88.44;100093.33;130527;1262;108704;-80
2024/02/28 00:12:55;;;;;;;60.70;39.70;;;;;;;10.15;88.87;100092.92;130530;1263;106718;-81
2024/02/28 00:16:00;;;;;;;69.30;44.10;;;;;;;10.19;88.60;100095.78;130579;1264;106881;-79
2024/02/28 00:19:06;;;;;;;65.70;40.30;;;;;;;10.21;88.91;100100.04;130532;1262;108707;-80
2024/02/28 00:22:12;;;;;;;68.80;41.60;;;;;;;10.22;88.71;100104.48;130525;1262;106438;-80
2024/02/28 00:25:18;;;;;;;65.90;43.20;;;;;;;10.20;88.25;100108.50;130516;1259;107425;-80
2024/02/28 00:28:23;;;;;;;60.80;39.80;;;;;;;10.18;88.38;100107.35;130533;1262;106848;-81
2024/02/28 00:31:29;;;;;;;63.80;41.90;;;;;;;10.22;88.53;100111.27;130495;1259;108454;-80
2024/02/28 00:34:35;;;;;;;64.40;41.40;;;;;;;10.24;88.26;100109.66;130574;1260;108469;-80
2024/02/28 00:37:40;;;;;;;58.30;37.30;;;;;;;10.23;88.64;100106.55;130450;1259;108411;-80
2024/02/28 00:40:46;;;;;;;59.00;37.10;;;;;;;10.25;88.54;100103.02;130464;1262;108504;-80
2024/02/28 00:43:51;;;;;;;57.60;38.20;;;;;;;10.27;88.68;100103.13;130516;1260;106378;-81
2024/02/28 00:46:57;;;;;;;75.30;47.10;;;;;;;10.30;88.41;100109.67;130549;1265;107207;-83
2024/02/28 00:50:03;;;;;;;71.80;46.10;;;;;;;10.32;88.46;100108.20;130543;1260;108385;-83
2024/02/28 00:53:09;;;;;;;76.80;47.30;;;;;;;10.35;88.43;100111.61;130549;1263;108649;-83
2024/02/28 00:56:15;;;;;;;66.60;43.80;;;;;;;10.33;88.34;100110.00;130564;1264;108683;-80
2024/02/28 00:59:20;;;;;;;55.10;35.50;;;;;;;10.30;88.30;100116.36;130502;1265;106520;-83
2024/02/28 01:02:26;;;;;;;49.10;31.50;;;;;;;10.29;88.27;100121.30;130530;1265;106621;-83
2024/02/28 01:05:35;;;;;;;56.90;39.10;;;;;;;10.28;88.15;100119.60;130586;1271;106518;-82
2024/02/28 01:08:41;;;;;;;55.20;37.00;;;;;;;10.28;88.29;100121.23;130446;1264;108730;-82
2024/02/28 01:11:46;;;;;;;63.60;40.60;;;;;;;10.28;88.00;100120.66;130446;1263;106617;-80
2024/02/28 01:14:52;;;;;;;57.10;38.20;;;;;;;10.28;88.42;100118.34;130486;1273;108610;-82
2024/02/28 01:17:58;;;;;;;56.70;38.20;;;;;;;10.28;88.13;100120.49;130489;1262;107619;-82
2024/02/28 01:21:04;;;;;;;63.50;41.30;;;;;;;10.26;88.19;100123.73;130490;1265;107991;-83
2024/02/28 01:24:10;;;;;;;61.70;38.50;;;;;;;10.23;88.74;100127.38;130549;1263;106833;-80
2024/02/28 01:27:15;;;;;;;55.70;37.10;;;;;;;10.21;88.40;100134.06;130416;1263;190502;-80
2024/02/28 01:30:21;;;;;;;67.20;42.20;;;;;;;10.23;88.59;100138.02;130545;1260;106300;-80
2024/02/28 01:33:26;;;;;;;69.70;45.30;;;;;;;10.24;88.95;100136.02;130539;1265;107292;-80
2024/02/28 01:36:32;;;;;;;68.60;43.80;;;;;;;10.26;88.85;100140.20;130493;1263;107715;-80
2024/02/28 01:39:38;;;;;;;62.50;39.50;;;;;;;10.27;89.27;100143.34;130448;1260;107717;-80
2024/02/28 01:42:43;;;;;;;59.10;37.40;;;;;;;10.29;89.12;100144.57;130528;1265;107778;-80
2024/02/28 01:45:49;;;;;;;61.60;41.00;;;;;;;10.32;89.09;100142.65;130486;1263;109398;-80
2024/02/28 01:48:55;;;;;;;62.20;40.00;;;;;;;10.36;89.16;100139.09;130491;1264;108531;-80
2024/02/28 01:52:01;;;;;;;62.10;41.00;;;;;;;10.40;89.24;100139.92;130464;1265;107706;-80
2024/02/28 01:55:09;;;;;;;68.40;44.30;;;;;;;10.42;89.53;100140.20;130548;1273;107554;-80
2024/02/28 01:58:14;;;;;;;62.10;39.10;;;;;;;10.40;89.46;100138.16;130612;1259;108336;-81
2024/02/28 02:01:20;;;;;;;56.60;35.80;;;;;;;10.39;89.28;100138.18;130520;1259;107671;-81
2024/02/28 02:04:29;;;;;;;62.40;40.50;;;;;;;10.40;89.56;100139.95;130616;1260;107361;-81
2024/02/28 02:07:35;;;;;;;59.30;39.80;;;;;;;10.41;89.54;100136.56;130524;1259;108800;-81
2024/02/28 02:10:42;;;;;;;62.00;42.10;;;;;;;10.43;89.64;100138.72;130535;1262;106516;-81
2024/02/28 02:13:54;;;;;;;67.40;43.30;;;;;;;10.46;89.61;100136.27;130456;1261;108873;-80
2024/02/28 02:16:58;;;;;;;;;;;;;;;10.47;89.49;100134.79;130317;1260;108542;-79
2024/02/28 02:20:05;;;;;;;62.30;37.60;;;;;;;10.46;89.93;100131.13;130422;1259;107854;-80
2024/02/28 02:23:12;;;;;;;61.40;41.40;;;;;;;10.42;89.61;100127.95;130382;1266;106504;-80
2024/02/28 02:26:18;;;;;;;54.80;37.70;;;;;;;10.42;89.93;100126.03;130488;1263;107130;-80
2024/02/28 02:29:23;;;;;;;56.60;39.80;;;;;;;10.45;89.85;100119.11;130450;1264;107532;-80
2024/02/28 02:32:29;;;;;;;61.80;40.50;;;;;;;10.47;89.98;100117.36;130510;1264;107736;-80
2024/02/28 02:35:35;;;;;;;58.40;35.60;;;;;;;10.45;89.88;100116.09;130630;1262;107077;-80
2024/02/28 02:38:40;;;;;;;57.50;36.20;;;;;;;10.45;89.76;100112.21;130569;1263;106861;-80
2024/02/28 02:41:47;;;;;;;53.40;36.10;;;;;;;10.46;90.09;100110.69;130567;1272;108087;-80
2024/02/28 02:44:52;;;;;;;60.70;39.90;;;;;;;10.47;90.17;100109.72;130505;1260;106435;-80
2024/02/28 02:47:58;;;;;;;59.90;39.40;;;;;;;10.49;89.82;100107.20;130544;1264;107979;-80
2024/02/28 02:51:04;;;;;;;58.80;39.40;;;;;;;10.50;90.20;100110.78;130446;1263;108646;-82
2024/02/28 02:54:09;;;;;;;54.90;37.50;;;;;;;10.50;89.80;100110.27;130519;1263;107547;-79
2024/02/28 02:57:15;;;;;;;49.30;33.10;;;;;;;10.49;90.03;100108.58;130440;1263;107193;-80
2024/02/28 03:00:21;;;;;;;51.70;32.80;;;;;;;10.47;89.88;100108.30;130516;1264;107114;-80
2024/02/28 03:03:27;;;;;;;55.10;37.40;;;;;;;10.46;89.95;100105.59;130523;1268;108349;-80
2024/02/28 03:06:33;;;;;;;54.70;36.10;;;;;;;10.46;89.94;100101.79;130518;1259;109386;-80
2024/02/28 03:09:38;;;;;;;56.50;36.90;;;;;;;10.47;90.10;100097.80;130548;1263;108983;-81
2024/02/28 03:12:44;;;;;;;51.70;35.90;;;;;;;10.45;89.92;100094.24;130475;1259;107431;-82
2024/02/28 03:15:49;;;;;;;51.40;36.00;;;;;;;10.43;89.92;100097.63;130579;1259;108649;-81
2024/02/28 03:18:56;;;;;;;49.20;33.20;;;;;;;10.40;89.73;100091.88;130476;1259;107717;-81
2024/02/28 03:22:02;;;;;;;50.80;33.40;;;;;;;10.36;89.80;100093.15;130575;1265;106343;-81
2024/02/28 03:25:10;;;;;;;52.80;36.50;;;;;;;10.35;89.91;100095.25;130519;1263;108643;-81
2024/02/28 03:28:15;;;;;;;52.90;35.50;;;;;;;10.31;89.68;100095.27;130472;1263;106860;-81
2024/02/28 03:31:21;;;;;;;55.30;35.60;;;;;;;10.29;89.84;100098.69;130394;1263;108673;-81
2024/02/28 03:34:27;;;;;;;49.20;34.40;;;;;;;10.29;89.59;100105.30;130583;1264;108680;-80
2024/02/28 03:37:32;;;;;;;56.70;38.00;;;;;;;10.28;89.92;100102.19;130614;1259;108746;-80
2024/02/28 03:40:38;;;;;;;56.10;38.10;;;;;;;10.17;89.64;100101.44;130487;1266;106700;-80
2024/02/28 03:43:43;;;;;;;56.30;36.90;;;;;;;9.99;89.91;100107.12;130552;1263;108317;-79
2024/02/28 03:46:49;;;;;;;58.40;38.40;;;;;;;9.93;90.50;100109.76;130530;1265;108682;-79
2024/02/28 03:49:57;;;;;;;53.00;37.50;;;;;;;9.96;90.49;100112.95;130533;1263;107029;-80
2024/02/28 03:53:03;;;;;;;56.60;38.80;;;;;;;10.02;90.30;100109.58;130434;1260;108606;-79
2024/02/28 03:56:08;;;;;;;53.30;36.40;;;;;;;10.06;90.26;100108.80;130434;1273;108322;-79
2024/02/28 03:59:14;;;;;;;53.60;35.20;;;;;;;10.07;90.17;100106.09;130545;1264;107685;-81
2024/02/28 04:02:20;;;;;;;50.30;32.90;;;;;;;10.04;90.40;100105.76;130552;1270;108222;-80
2024/02/28 04:05:25;;;;;;;49.10;33.90;;;;;;;10.08;90.30;100107.36;130817;1264;107203;-81
2024/02/28 04:08:31;;;;;;;48.80;34.20;;;;;;;10.10;90.30;100099.71;130536;1263;106608;-80
2024/02/28 04:11:37;;;;;;;52.30;35.80;;;;;;;10.11;90.13;100099.09;130496;1273;108794;-81
2024/02/28 04:14:43;;;;;;;52.80;37.50;;;;;;;10.09;90.20;100102.61;130434;1273;108616;-80
2024/02/28 04:17:49;;;;;;;53.30;36.90;;;;;;;10.07;90.13;100101.72;130518;1260;107484;-81
2024/02/28 04:20:54;;;;;;;47.20;32.60;;;;;;;10.04;89.90;100104.86;130546;1263;107092;-81
2024/02/28 04:24:00;;;;;;;47.60;33.30;;;;;;;10.02;90.03;100109.41;130647;1261;107680;-80
2024/02/28 04:27:09;;;;;;;49.00;34.10;;;;;;;10.01;90.18;100112.64;130635;1269;107980;-81
2024/02/28 04:30:15;;;;;;;49.50;34.30;;;;;;;10.00;89.81;100118.25;130519;1263;108615;-81
2024/02/28 04:33:21;;;;;;;53.60;36.30;;;;;;;9.99;90.08;100117.52;130505;1269;106447;-80
2024/02/28 04:36:26;;;;;;;51.50;35.20;;;;;;;9.98;89.79;100120.94;130530;1270;108537;-80
2024/02/28 04:39:32;;;;;;;59.70;39.60;;;;;;;9.97;90.06;100125.48;130581;1264;108679;-80
2024/02/28 04:42:38;;;;;;;47.70;32.70;;;;;;;9.86;89.98;100132.85;130517;1264;108776;-79
2024/02/28 04:45:46;;;;;;;46.70;31.80;;;;;;;9.73;90.14;100137.63;130543;1264;107774;-80
2024/02/28 04:48:51;;;;;;;76.40;45.60;;;;;;;9.76;90.32;100141.80;130541;1261;106949;-80
2024/02/28 04:51:58;;;;;;;79.50;47.40;;;;;;;9.78;90.25;100147.80;130536;1264;106364;-80
2024/02/28 04:55:04;;;;;;;76.60;46.90;;;;;;;9.80;90.28;100148.13;130526;1259;107380;-80
2024/02/28 04:58:10;;;;;;;61.20;40.90;;;;;;;9.83;90.39;100150.70;130473;1261;107569;-81
2024/02/28 05:01:16;;;;;;;54.30;35.20;;;;;;;9.83;90.44;100152.30;130556;1264;107079;-81
2024/02/28 05:04:21;;;;;;;51.90;33.60;;;;;;;9.83;90.14;100158.65;130685;1265;108712;-81
2024/02/28 05:07:27;;;;;;;46.00;31.90;;;;;;;9.84;90.33;100161.41;130317;1263;106421;-80
2024/02/28 05:10:34;;;;;;;47.20;33.40;;;;;;;9.87;90.26;100168.12;130423;1260;107560;-81
2024/02/28 05:14:25;;;;;;;50.00;33.90;;;;;;;9.88;90.27;100171.52;130469;1259;108791;-83
2024/02/28 05:17:37;;;;;;;48.90;34.90;;;;;;;9.92;90.01;100176.67;130568;1263;108427;-82
2024/02/28 05:20:44;;;;;;;54.00;36.80;;;;;;;9.92;90.31;100174.88;130493;1264;107825;-81
2024/02/28 05:23:49;;;;;;;47.40;31.40;;;;;;;9.91;90.13;100177.33;130370;1261;108636;-80
2024/02/28 05:26:55;;;;;;;48.10;31.00;;;;;;;9.86;89.87;100177.22;130354;1261;107752;-80
2024/02/28 05:30:05;;;;;;;49.40;33.70;;;;;;;9.86;90.48;100177.75;130593;1263;108779;-80
2024/02/28 05:33:11;;;;;;;47.60;32.10;;;;;;;9.90;90.36;100176.33;130488;1263;108636;-80
2024/02/28 05:36:17;;;;;;;49.80;35.00;;;;;;;9.92;90.10;100176.95;130481;1264;108596;-80
2024/02/28 05:39:23;;;;;;;52.70;35.40;;;;;;;9.95;90.04;100178.34;130550;1260;106560;-81
2024/02/28 05:42:28;;;;;;;51.80;31.80;;;;;;;9.94;90.18;100180.54;130561;1261;106524;-80
2024/02/28 05:45:34;;;;;;;47.90;31.30;;;;;;;9.94;89.99;100184.13;130465;1264;107660;-80
2024/02/28 05:48:41;;;;;;;51.70;34.90;;;;;;;9.94;90.12;100184.48;130513;1260;108572;-80
2024/02/28 05:51:47;;;;;;;48.30;32.20;;;;;;;9.95;90.26;100180.41;130541;1264;108557;-80
2024/02/28 05:54:53;;;;;;;53.20;35.70;;;;;;;9.98;90.19;100178.91;130579;1263;107278;-82
2024/02/28 05:57:58;;;;;;;51.10;35.20;;;;;;;9.99;90.11;100183.20;130439;1261;108550;-80
2024/02/28 06:01:04;;;;;;;53.00;34.10;;;;;;;10.01;90.54;100183.89;130892;1260;108739;-80
2024/02/28 06:04:10;;;;;;;56.10;37.50;;;;;;;10.03;90.30;100186.41;130893;1264;108658;-81
2024/02/28 06:07:15;;;;;;;57.40;37.70;;;;;;;10.03;90.32;100190.48;130611;1261;107430;-80
2024/02/28 06:10:21;;;;;;;62.00;42.10;;;;;;;9.97;90.51;100187.51;130493;1264;107609;-80
2024/02/28 06:13:28;;;;;;;54.30;37.80;;;;;;;9.96;91.03;100192.97;130470;1261;108633;-80
2024/02/28 06:16:33;;;;;;;56.50;38.20;;;;;;;10.04;90.80;100196.30;130488;1264;107730;-80
2024/02/28 06:19:39;;;;;;;49.30;33.70;;;;;;;10.11;91.03;100200.90;130570;1260;107789;-79
2024/02/28 06:22:44;;;;;;;49.00;32.10;;;;;;;10.16;90.75;100199.34;130523;1263;107590;-80
2024/02/28 06:25:50;;;;;;;49.90;32.70;;;;;;;10.22;90.99;100199.58;130441;1260;108456;-79
2024/02/28 06:29:01;;;;;;;50.80;35.30;;;;;;;10.33;91.28;100201.96;130568;1265;107704;-80
2024/02/28 06:32:07;;;;;;;56.90;38.00;;;;;;;10.42;91.40;100204.25;130473;1260;108732;-80
2024/02/28 06:35:12;;;;;;;54.50;37.90;;;;;;;10.50;91.49;100204.33;130295;1273;107013;-80
2024/02/28 06:38:18;;;;;;;52.20;35.00;;;;;;;10.61;91.36;100211.29;130382;1261;109896;-80
2024/02/28 06:41:24;;;;;;;47.40;32.80;;;;;;;10.71;91.61;100211.66;130611;1261;108690;-81
2024/02/28 06:44:29;;;;;;;50.20;32.40;;;;;;;10.82;91.80;100214.30;130507;1261;107173;-82
2024/02/28 06:47:36;;;;;;;46.70;32.20;;;;;;;10.92;91.61;100215.79;130358;1260;107604;-82
2024/02/28 06:50:42;;;;;;;52.60;37.00;;;;;;;11.01;91.77;100218.59;130409;1272;106679;-81
2024/02/28 06:53:47;;;;;;;50.30;34.30;;;;;;;11.09;91.61;100217.96;130508;1261;107201;-81
2024/02/28 06:56:53;;;;;;;51.30;35.70;;;;;;;11.14;91.62;100222.61;130613;1264;107612;-81
2024/02/28 06:59:59;;;;;;;47.00;33.10;;;;;;;11.17;91.77;100224.77;130572;1264;108679;-83
2024/02/28 07:03:05;;;;;;;46.50;30.80;;;;;;;11.22;92.29;100226.13;130542;1260;107722;-82
2024/02/28 07:06:12;;;;;;;46.50;32.50;;;;;;;11.28;91.93;100227.95;130523;1263;107795;-80
2024/02/28 07:09:18;;;;;;;47.40;32.60;;;;;;;11.35;92.23;100231.80;130543;1261;106429;-80
2024/02/28 07:12:24;;;;;;;49.40;34.70;;;;;;;11.43;92.04;100232.11;130292;1263;107788;-80
2024/02/28 07:15:30;;;;;;;47.50;33.80;;;;;;;11.50;92.32;100237.03;130584;1261;106867;-80
2024/02/28 07:18:35;;;;;;;51.90;35.20;;;;;;;11.57;92.16;100232.77;130433;1260;107647;-80
2024/02/28 07:21:41;;;;;;;45.40;30.90;;;;;;;11.66;92.17;100232.79;130474;1264;107489;-81
2024/02/28 07:24:47;;;;;;;45.00;32.30;;;;;;;11.74;92.10;100232.92;130516;1263;108703;-83
2024/02/28 07:27:52;;;;;;;50.70;36.00;;;;;;;11.84;92.36;100237.98;130446;1264;106626;-80
2024/02/28 07:30:58;;;;;;;54.70;36.70;;;;;;;11.95;92.15;100241.70;130384;1264;108608;-81
2024/02/28 07:34:04;;;;;;;55.10;37.10;;;;;;;12.03;92.16;100244.98;130540;1263;106468;-82
2024/02/28 07:37:12;;;;;;;54.30;36.00;;;;;;;12.08;92.23;100245.50;130652;1260;106824;-83
2024/02/28 07:40:18;;;;;;;66.50;43.90;;;;;;;12.12;92.05;100248.79;130472;1261;107624;-81
2024/02/28 07:43:23;;;;;;;51.50;34.70;;;;;;;12.14;92.04;100249.23;130616;1264;107729;-81
2024/02/28 07:46:29;;;;;;;47.50;33.60;;;;;;;12.16;92.19;100254.80;130518;1263;107778;-81
2024/02/28 07:49:35;;;;;;;53.00;38.10;;;;;;;12.19;92.29;100254.95;130529;1260;107868;-81
2024/02/28 07:52:40;;;;;;;53.00;34.70;;;;;;;12.23;92.23;100259.04;130606;1273;108296;-81
2024/02/28 07:55:46;;;;;;;44.10;31.50;;;;;;;12.26;92.17;100261.92;130458;1263;108715;-81
2024/02/28 07:58:52;;;;;;;45.30;31.20;;;;;;;12.28;92.03;100261.30;130552;1266;107548;-81
2024/02/28 08:01:57;;;;;;;53.80;36.80;;;;;;;12.29;92.10;100261.56;130525;1264;107706;-82
2024/02/28 08:05:03;;;;;;;51.50;34.60;;;;;;;12.30;92.10;100270.92;130520;1259;105633;-81
2024/02/28 08:08:09;;;;;;;52.10;38.00;;;;;;;12.33;92.21;100268.09;130544;1259;106783;-81
2024/02/28 08:11:15;;;;;;;58.30;41.60;;;;;;;12.34;91.93;100269.61;130528;1263;106782;-81
2024/02/28 08:14:21;;;;;;;49.50;35.20;;;;;;;12.33;92.01;100272.98;130553;1263;107675;-81
2024/02/28 08:17:26;;;;;;;88.90;63.40;;;;;;;12.31;92.10;100266.88;130584;1263;105566;-81
2024/02/28 08:20:32;;;;;;;71.30;48.80;;;;;;;12.35;92.10;100272.02;130596;1263;107948;-82
2024/02/28 08:23:38;;;;;;;54.10;37.10;;;;;;;12.37;91.98;100272.88;130542;1263;108914;-81
2024/02/28 08:26:44;;;;;;;57.80;39.40;;;;;;;12.42;92.15;100272.39;130526;1260;107719;-82
2024/02/28 08:29:49;;;;;;;49.10;34.30;;;;;;;12.46;92.06;100275.27;130598;1265;107061;-82
2024/02/28 08:32:55;;;;;;;46.70;33.50;;;;;;;12.48;92.04;100280.40;130757;1261;108688;-82
2024/02/28 08:36:00;;;;;;;49.80;34.50;;;;;;;12.49;91.82;100280.02;130541;1260;107415;-81
2024/02/28 08:39:09;;;;;;;47.00;32.40;;;;;;;12.45;91.90;100282.02;130553;1258;106272;-82
2024/02/28 08:42:14;;;;;;;47.70;32.30;;;;;;;12.42;91.89;100281.42;130617;1261;107913;-82
2024/02/28 08:45:20;;;;;;;49.80;34.60;;;;;;;12.42;92.11;100282.36;130478;1258;107242;-83
2024/02/28 08:48:26;;;;;;;48.00;34.60;;;;;;;12.42;92.06;100278.17;130468;1261;107081;-81
2024/02/28 08:51:31;;;;;;;52.80;35.60;;;;;;;12.44;92.10;100278.52;130604;1263;106938;-81
2024/02/28 08:54:37;;;;;;;58.00;42.60;;;;;;;12.46;92.04;100281.54;130602;1261;107502;-81
2024/02/28 08:57:45;;;;;;;52.50;37.10;;;;;;;12.48;92.07;100282.77;130550;1261;106886;-80
2024/02/28 09:00:51;;;;;;;53.50;38.10;;;;;;;12.48;92.12;100278.45;130527;1264;107140;-81
2024/02/28 09:03:56;;;;;;;54.70;40.00;;;;;;;12.47;91.86;100278.46;130514;1273;107812;-81
2024/02/28 09:07:02;;;;;;;61.10;43.40;;;;;;;12.46;92.02;100277.12;130546;1264;106657;-80
2024/02/28 09:10:09;;;;;;;54.20;37.00;;;;;;;12.48;91.92;100277.98;130540;1263;108814;-83
2024/02/28 09:13:15;;;;;;;58.40;40.90;;;;;;;12.51;91.87;100277.46;130482;1261;107078;-82
2024/02/28 09:16:20;;;;;;;58.20;40.70;;;;;;;12.57;91.90;100276.19;130496;1259;108755;-82
2024/02/28 09:19:26;;;;;;;59.00;41.90;;;;;;;12.63;91.76;100278.48;130468;1264;107794;-82
2024/02/28 09:22:31;;;;;;;65.80;46.60;;;;;;;12.64;91.88;100278.27;130539;1274;107773;-81
2024/02/28 09:25:37;;;;;;;55.10;36.90;;;;;;;12.68;91.99;100282.23;130605;1264;105809;-82
2024/02/28 09:28:43;;;;;;;52.40;36.80;;;;;;;12.72;92.03;100283.91;130528;1264;107932;-82
2024/02/28 09:31:48;;;;;;;56.90;38.80;;;;;;;12.74;91.87;100286.59;130585;1263;108219;-81
2024/02/28 09:34:54;;;;;;;52.70;36.20;;;;;;;12.77;91.96;100288.56;130551;1263;107897;-82
2024/02/28 09:37:59;;;;;;;78.30;59.40;;;;;;;12.81;91.81;100289.57;130568;1260;107031;-81
2024/02/28 09:41:05;;;;;;;61.80;44.20;;;;;;;12.82;91.63;100288.52;130608;1263;108351;-82
2024/02/28 09:44:12;;;;;;;60.50;41.30;;;;;;;12.82;91.66;100288.59;130535;1263;107074;-81
2024/02/28 09:47:18;;;;;;;60.00;41.60;;;;;;;12.85;91.66;100290.07;130523;1260;107596;-82
2024/02/28 09:50:24;;;;;;;106.70;79.70;;;;;;;12.89;91.49;100292.04;130373;1260;108190;-82
2024/02/28 09:53:30;;;;;;;66.60;48.20;;;;;;;12.90;91.37;100296.30;130616;1260;106387;-82
2024/02/28 09:56:36;;;;;;;53.00;38.20;;;;;;;12.88;91.28;100298.10;130581;1273;108139;-86
2024/02/28 09:59:43;;;;;;;55.70;38.20;;;;;;;12.83;91.24;100305.21;130912;1264;108689;-84
2024/02/28 10:02:50;;;;;;;57.80;41.10;;;;;;;12.78;91.13;100307.01;130586;1264;105432;-85
2024/02/28 10:05:55;;;;;;;50.00;36.10;;;;;;;12.73;91.16;100311.83;130290;1265;106089;-83
2024/02/28 10:09:01;;;;;;;49.70;33.60;;;;;;;12.69;91.26;100318.52;130437;1264;108355;-83
2024/02/28 10:12:07;;;;;;;53.30;34.90;;;;;;;12.65;91.17;100317.23;130530;1264;106869;-83
2024/02/28 10:15:13;;;;;;;47.60;33.90;;;;;;;12.59;91.05;100322.11;130578;1264;106894;-83
2024/02/28 10:18:19;;;;;;;52.70;36.50;;;;;;;12.56;91.16;100322.81;130513;1259;106395;-83
2024/02/28 10:21:26;;;;;;;57.50;39.50;;;;;;;12.51;91.02;100322.76;130539;1263;106899;-83
2024/02/28 10:24:33;;;;;;;59.20;41.70;;;;;;;12.33;90.85;100329.50;130575;1264;106584;-82
2024/02/28 10:27:39;;;;;;;52.10;36.80;;;;;;;12.07;91.18;100334.22;130502;1264;107249;-83
2024/02/28 10:30:45;;;;;;;67.10;48.10;;;;;;;11.91;91.75;100337.81;130505;1259;107786;-83
2024/02/28 10:33:50;;;;;;;59.90;41.00;;;;;;;11.80;91.21;100332.16;130572;1260;108035;-83
2024/02/28 10:36:57;;;;;;;55.30;38.40;;;;;;;11.69;91.46;100335.75;130633;1263;106854;-83
2024/02/28 10:40:03;;;;;;;51.10;37.00;;;;;;;11.70;91.51;100336.79;130615;1259;108547;-83
2024/02/28 10:43:10;;;;;;;56.00;37.90;;;;;;;11.68;91.35;100336.55;130845;1259;107050;-84
2024/02/28 10:46:16;;;;;;;51.00;34.90;;;;;;;11.60;91.44;100342.00;130970;1259;106880;-83
2024/02/28 10:49:22;;;;;;;56.20;38.30;;;;;;;11.47;91.57;100342.45;130860;1263;106810;-82
2024/02/28 10:52:29;;;;;;;55.50;38.00;;;;;;;11.37;91.62;100346.73;130585;1264;106249;-83
2024/02/28 10:55:40;;;;;;;58.60;42.30;;;;;;;11.26;91.88;100349.02;130543;1259;106781;-83
2024/02/28 10:58:53;;;;;;;58.60;41.80;;;;;;;11.17;91.71;100349.41;130592;1260;106603;-82
2024/02/28 11:01:57;;;;;;;;;;;;;;;11.08;91.82;100350.67;130636;1259;107616;-82
2024/02/28 11:05:03;;;;;;;48.50;32.30;;;;;;;10.97;92.21;100352.19;130544;1259;106486;-82
2024/02/28 11:08:10;;;;;;;53.20;36.20;;;;;;;10.86;92.29;100353.21;130537;1259;107756;-82
2024/02/28 11:11:17;;;;;;;94.10;61.60;;;;;;;10.77;92.55;100355.20;130438;1264;107814;-79
2024/02/28 11:14:25;;;;;;;63.80;44.20;;;;;;;10.68;92.69;100359.45;130605;1259;108808;-81
2024/02/28 11:17:31;;;;;;;52.80;35.30;;;;;;;10.64;92.67;100362.70;130586;1261;108951;-80
2024/02/28 11:20:37;;;;;;;78.60;55.40;;;;;;;10.59;92.68;100360.69;130669;1264;108369;-81
2024/02/28 11:23:46;;;;;;;52.20;35.80;;;;;;;10.60;92.84;100367.48;130340;1264;107461;-83
2024/02/28 11:26:52;;;;;;;41.50;31.20;;;;;;;10.55;93.23;100367.67;130335;1264;108604;-80
2024/02/28 11:29:58;;;;;;;44.00;29.50;;;;;;;10.48;93.48;100367.67;130421;1263;107670;-79
2024/02/28 11:33:04;;;;;;;42.90;30.80;;;;;;;10.39;93.89;100363.38;130471;1261;108717;-81
2024/02/28 11:36:12;;;;;;;45.10;30.00;;;;;;;10.34;94.16;100361.69;130350;1259;107635;-79
2024/02/28 11:39:19;;;;;;;43.80;29.20;;;;;;;10.28;94.41;100359.63;130449;1259;107880;-83
2024/02/28 11:42:25;;;;;;;42.40;27.00;;;;;;;10.31;95.21;100363.61;130466;1273;106934;-80
2024/02/28 11:45:31;;;;;;;40.40;27.60;;;;;;;10.40;94.59;100364.83;130510;1264;108615;-79
2024/02/28 11:48:37;;;;;;;46.20;29.90;;;;;;;10.49;94.09;100372.35;130242;1259;108636;-81
2024/02/28 11:51:43;;;;;;;44.80;31.60;;;;;;;10.47;93.90;100370.73;130506;1259;108633;-82
2024/02/28 11:54:49;;;;;;;47.20;32.10;;;;;;;10.45;93.69;100377.21;130316;1264;108481;-81
2024/02/28 11:57:55;;;;;;;46.90;30.10;;;;;;;10.45;93.89;100376.86;130503;1258;108762;-82
2024/02/28 12:01:01;;;;;;;48.70;32.40;;;;;;;10.42;93.79;100377.11;130532;1263;106666;-82
2024/02/28 12:04:07;;;;;;;51.60;33.40;;;;;;;10.34;94.13;100376.34;130445;1265;106443;-82
2024/02/28 12:07:13;;;;;;;49.40;31.80;;;;;;;10.25;94.13;100376.63;130402;1264;108641;-82
2024/02/28 12:10:19;;;;;;;55.70;35.20;;;;;;;10.23;94.40;100380.82;130385;1265;107371;-83
2024/02/28 12:13:25;;;;;;;49.00;30.40;;;;;;;10.21;94.44;100378.92;130545;1259;106509;-82
2024/02/28 12:16:32;;;;;;;53.60;32.80;;;;;;;10.22;94.65;100382.17;130612;1264;107641;-84
2024/02/28 12:19:39;;;;;;;47.10;30.40;;;;;;;10.18;94.36;100386.72;130477;1259;107592;-83
2024/02/28 12:22:45;;;;;;;59.90;37.00;;;;;;;10.11;94.33;100386.86;130541;1264;107579;-81
2024/02/28 12:25:51;;;;;;;63.60;38.20;;;;;;;10.07;94.53;100388.41;130584;1259;107683;-84
2024/02/28 12:28:56;;;;;;;55.40;30.70;;;;;;;10.09;94.60;100390.34;130629;1259;108657;-81
2024/02/28 12:32:03;;;;;;;48.20;29.70;;;;;;;10.01;94.08;100390.30;131115;1259;106795;-86
2024/02/28 12:35:10;;;;;;;40.30;23.90;;;;;;;9.94;94.48;100400.39;132298;1258;107343;-85
2024/02/28 12:38:19;;;;;;;47.20;29.20;;;;;;;9.81;94.30;100398.48;130600;1261;107648;-88
2024/02/28 12:41:30;;;;;;;36.90;21.70;;;;;;;9.79;95.09;100400.71;130579;1264;107333;-86
2024/02/28 12:44:37;;;;;;;28.90;19.40;;;;;;;9.73;94.74;100400.90;130815;1263;107928;-85
2024/02/28 12:47:43;;;;;;;31.30;20.30;;;;;;;9.65;95.38;100403.24;131858;1258;108461;-85
2024/02/28 12:50:49;;;;;;;25.90;16.40;;;;;;;9.59;95.77;100399.34;131550;1262;107678;-84
2024/02/28 12:53:56;;;;;;;22.90;15.00;;;;;;;9.54;95.96;100399.82;131335;1259;106967;-88
2024/02/28 12:57:04;;;;;;;21.90;14.40;;;;;;;9.53;95.99;100397.27;130703;1259;107415;-84
2024/02/28 13:00:11;;;;;;;24.00;14.60;;;;;;;9.53;95.11;100400.83;130324;1259;107798;-83
2024/02/28 13:03:17;;;;;;;21.80;14.70;;;;;;;9.54;95.53;100403.18;130449;1263;107688;-84
2024/02/28 13:06:23;;;;;;;20.30;13.90;;;;;;;9.56;95.37;100407.63;130627;1262;108736;-84
2024/02/28 13:09:28;;;;;;;24.30;14.30;;;;;;;9.59;95.15;100413.07;130634;1263;107042;-84
2024/02/28 13:12:34;;;;;;;23.80;15.00;;;;;;;9.63;95.54;100409.44;130775;1259;108197;-84
2024/02/28 13:15:41;;;;;;;17.80;12.20;;;;;;;9.59;95.38;100411.25;130580;1264;106624;-83
2024/02/28 13:18:47;;;;;;;20.60;14.20;;;;;;;9.54;95.29;100407.64;131373;1259;108672;-84
2024/02/28 13:21:52;;;;;;;17.50;12.00;;;;;;;9.55;95.46;100405.94;131974;1258;107428;-87
2024/02/28 13:24:58;;;;;;;18.80;12.60;;;;;;;9.56;95.26;100410.47;130650;1259;107078;-84
2024/02/28 13:28:04;;;;;;;17.70;12.00;;;;;;;9.50;95.40;100411.20;130251;1264;300421;-83
2024/02/28 13:31:10;;;;;;;17.30;11.70;;;;;;;9.43;95.33;100408.83;130613;1264;107069;-84
2024/02/28 13:34:15;;;;;;;21.80;14.70;;;;;;;9.36;96.00;100406.60;131229;1259;107410;-84
2024/02/28 13:37:21;;;;;;;16.40;11.50;;;;;;;9.44;95.86;100411.61;131875;1258;107542;-85
2024/02/28 13:40:27;;;;;;;20.00;13.70;;;;;;;9.51;95.98;100412.22;131732;1259;106086;-84
2024/02/28 13:43:36;;;;;;;24.70;17.10;;;;;;;9.57;95.67;100411.85;132698;1258;107961;-86
2024/02/28 13:46:47;;;;;;;37.70;26.30;;;;;;;9.63;95.56;100416.60;132204;1258;107513;-86
2024/02/28 13:49:53;;;;;;;24.40;16.50;;;;;;;9.70;95.62;100415.19;130702;1259;106641;-85